Time;durP1;ratioP1;P1;durP2;ratioP2;P2;SDS_P1;SDS_P2;PMS_P1;PMS_P2;Temp;Humidity;BMP_temperature;BMP_pressure;BME280_temperature;BME280_humidity;BME280_pressure;Samples;Min_cycle;Max_cycle;Signal;HPM_P1;HPM_P2
2021/01/16 00:00:28;;;;;;;49.40;37.10;;;1.60;86.60;;;;;;5046809;28;20061;-79
2021/01/16 00:02:54;;;;;;;49.30;37.17;;;1.70;86.70;;;;;;5047175;28;20039;-80
2021/01/16 00:05:23;;;;;;;54.35;39.53;;;1.70;86.70;;;;;;5045934;28;24947;-79
2021/01/16 00:08:05;;;;;;;51.20;37.67;;;1.60;86.70;;;;;;5047617;28;20065;-79
2021/01/16 00:10:33;;;;;;;46.53;34.55;;;1.60;86.70;;;;;;5056858;28;20025;-79
2021/01/16 00:12:59;;;;;;;49.42;34.97;;;1.60;86.70;;;;;;5051074;28;20036;-79
2021/01/16 00:15:26;;;;;;;48.30;35.10;;;1.60;86.20;;;;;;5048574;28;20033;-78
2021/01/16 00:17:58;;;;;;;48.67;35.30;;;1.60;86.20;;;;;;5057496;28;20047;-79
2021/01/16 00:20:24;;;;;;;46.13;34.80;;;1.60;86.10;;;;;;5047589;28;20477;-79
2021/01/16 00:22:50;;;;;;;47.80;33.88;;;1.60;86.20;;;;;;5045439;28;20039;-79
2021/01/16 00:25:16;;;;;;;43.38;34.42;;;1.60;86.30;;;;;;5041030;28;20036;-79
2021/01/16 00:27:42;;;;;;;50.75;35.50;;;1.60;86.50;;;;;;5053160;28;20104;-79
2021/01/16 00:30:09;;;;;;;47.30;35.13;;;1.60;86.60;;;;;;5047945;28;20036;-79
2021/01/16 00:32:39;;;;;;;49.17;36.13;;;1.60;86.50;;;;;;5046952;28;20033;-79
2021/01/16 00:35:09;;;;;;;47.03;34.83;;;1.60;86.50;;;;;;5046984;28;20048;-80
2021/01/16 00:37:36;;;;;;;48.13;35.97;;;1.60;86.40;;;;;;5048896;28;20083;-79
2021/01/16 00:40:06;;;;;;;43.95;32.95;;;1.60;86.40;;;;;;5045728;28;20041;-78
2021/01/16 00:42:32;;;;;;;45.42;33.55;;;1.60;86.50;;;;;;5046454;28;20735;-79
2021/01/16 00:44:58;;;;;;;49.10;34.72;;;1.60;86.60;;;;;;5048647;28;20037;-79
2021/01/16 00:47:24;;;;;;;45.40;32.30;;;1.60;86.60;;;;;;5046843;28;20029;-79
2021/01/16 00:49:50;;;;;;;44.30;33.35;;;1.60;86.40;;;;;;5048933;28;20040;-79
2021/01/16 00:52:16;;;;;;;44.22;33.22;;;1.60;86.50;;;;;;5048729;28;20041;-79
2021/01/16 00:54:42;;;;;;;43.72;32.28;;;1.60;86.50;;;;;;5050740;28;20039;-79
2021/01/16 00:57:07;;;;;;;44.05;32.63;;;1.60;86.50;;;;;;5045483;28;20063;-79
2021/01/16 00:59:33;;;;;;;45.92;32.35;;;1.60;86.60;;;;;;5044884;28;20048;-79
2021/01/16 01:01:58;;;;;;;46.15;33.50;;;1.60;86.60;;;;;;5044581;28;20029;-79
2021/01/16 01:04:24;;;;;;;45.55;33.95;;;1.60;86.60;;;;;;5045293;28;20045;-79
2021/01/16 01:06:50;;;;;;;51.08;34.35;;;1.60;86.60;;;;;;5045067;28;20541;-80
2021/01/16 01:09:15;;;;;;;49.38;35.03;;;1.60;86.40;;;;;;5044259;28;20036;-80
2021/01/16 01:11:41;;;;;;;46.55;33.97;;;1.60;86.30;;;;;;5047801;28;20384;-79
2021/01/16 01:14:06;;;;;;;49.15;33.70;;;1.60;86.30;;;;;;5047988;28;20047;-79
2021/01/16 01:16:32;;;;;;;44.33;32.58;;;1.60;86.40;;;;;;5045642;28;20033;-79
2021/01/16 01:18:58;;;;;;;45.20;32.95;;;1.50;86.50;;;;;;5045935;28;20032;-79
2021/01/16 01:21:24;;;;;;;47.28;33.63;;;1.60;86.70;;;;;;5043683;28;20044;-79
2021/01/16 01:23:49;;;;;;;45.45;32.72;;;1.60;86.70;;;;;;5046941;28;20048;-79
2021/01/16 01:26:15;;;;;;;45.53;32.90;;;1.60;86.70;;;;;;5044003;28;20036;-79
2021/01/16 01:28:40;;;;;;;46.25;32.28;;;1.60;86.70;;;;;;5049796;28;20056;-80
2021/01/16 01:31:06;;;;;;;44.05;32.47;;;1.60;86.70;;;;;;5044081;28;20045;-79
2021/01/16 01:33:32;;;;;;;44.83;32.35;;;1.60;86.30;;;;;;5046184;28;20490;-79
2021/01/16 01:35:57;;;;;;;42.03;30.98;;;1.60;86.30;;;;;;5047927;28;20048;-80
2021/01/16 01:38:23;;;;;;;45.17;32.40;;;1.60;86.30;;;;;;5049329;28;20119;-79
2021/01/16 01:40:49;;;;;;;42.40;32.38;;;1.50;85.90;;;;;;5045445;28;20037;-79
2021/01/16 01:43:15;;;;;;;43.38;32.00;;;1.50;86.00;;;;;;5045820;28;20118;-79
2021/01/16 01:45:41;;;;;;;44.30;31.33;;;1.50;86.10;;;;;;5046110;28;20041;-79
2021/01/16 01:48:07;;;;;;;41.35;29.30;;;1.50;86.30;;;;;;5045370;28;20103;-79
2021/01/16 01:50:33;;;;;;;44.90;31.40;;;1.50;86.10;;;;;;5043363;28;20029;-79
2021/01/16 01:53:01;;;;;;;42.13;29.67;;;1.50;85.80;;;;;;5046533;28;20706;-79
2021/01/16 01:55:28;;;;;;;43.92;30.52;;;1.50;85.90;;;;;;5046142;28;20055;-79
2021/01/16 01:57:54;;;;;;;40.75;30.45;;;1.50;86.00;;;;;;5044315;28;20041;-79
2021/01/16 02:00:21;;;;;;;45.05;31.67;;;1.50;86.10;;;;;;5043648;28;20040;-79
2021/01/16 02:02:48;;;;;;;45.58;33.10;;;1.40;86.10;;;;;;5062310;28;20061;-80
2021/01/16 02:05:15;;;;;;;42.55;30.95;;;1.50;86.30;;;;;;5066376;28;20037;-80
2021/01/16 02:07:41;;;;;;;43.97;31.20;;;1.50;86.40;;;;;;5068493;28;20032;-79
2021/01/16 02:10:09;;;;;;;42.22;30.25;;;1.50;86.40;;;;;;5069649;28;20041;-79
2021/01/16 02:12:37;;;;;;;41.15;29.35;;;1.50;86.40;;;;;;5058214;28;20112;-79
2021/01/16 02:15:06;;;;;;;46.45;31.77;;;1.50;86.30;;;;;;5039415;28;20828;-78
2021/01/16 02:17:37;;;;;;;43.00;32.03;;;1.50;86.30;;;;;;5045594;28;20045;-79
2021/01/16 02:20:08;;;;;;;40.03;30.00;;;1.60;86.30;;;;;;5046462;28;20033;-79
2021/01/16 02:22:51;;;;;;;44.40;32.40;;;1.60;86.50;;;;;;5047496;28;20123;-79
2021/01/16 02:25:28;;;;;;;45.95;33.03;;;1.50;86.30;;;;;;5037190;28;20041;-79
2021/01/16 02:28:06;;;;;;;44.28;32.83;;;1.60;86.30;;;;;;5045288;28;20122;-79
2021/01/16 02:30:38;;;;;;;42.15;30.65;;;1.50;86.10;;;;;;5046712;28;20507;-79
2021/01/16 02:33:07;;;;;;;44.90;32.67;;;1.50;86.10;;;;;;5053102;28;20045;-79
2021/01/16 02:35:42;;;;;;;44.58;32.10;;;1.50;86.00;;;;;;5049026;28;20032;-79
2021/01/16 02:38:30;;;;;;;43.42;30.98;;;1.50;86.10;;;;;;5044203;28;20037;-79
2021/01/16 02:41:19;;;;;;;42.75;30.85;;;1.50;86.20;;;;;;5040824;28;20474;-79
2021/01/16 02:43:56;;;;;;;46.97;32.67;;;1.50;86.40;;;;;;5046042;28;20033;-79
2021/01/16 02:46:38;;;;;;;48.42;34.75;;;1.40;86.40;;;;;;5045382;28;20041;-79
2021/01/16 02:49:12;;;;;;;48.08;34.88;;;1.40;86.60;;;;;;5045354;28;21484;-79
2021/01/16 02:51:46;;;;;;;45.72;34.10;;;1.40;86.70;;;;;;5046566;28;20029;-79
2021/01/16 02:54:12;;;;;;;51.93;35.00;;;1.40;86.80;;;;;;5050941;28;20041;-79
2021/01/16 02:56:39;;;;;;;46.38;34.15;;;1.40;86.90;;;;;;5050664;28;20338;-79
2021/01/16 02:59:05;;;;;;;43.97;32.67;;;1.40;86.80;;;;;;5050493;28;20033;-79
2021/01/16 03:01:35;;;;;;;48.35;34.88;;;1.40;86.80;;;;;;5050703;28;20033;-79
2021/01/16 03:04:01;;;;;;;49.90;35.08;;;1.40;86.90;;;;;;5049432;28;20037;-77
2021/01/16 03:06:27;;;;;;;46.70;33.08;;;1.40;86.90;;;;;;5049355;28;20033;-78
2021/01/16 03:08:56;;;;;;;53.00;34.00;;;1.40;87.10;;;;;;5048820;28;20426;-78
2021/01/16 03:11:24;;;;;;;48.78;33.33;;;1.40;87.10;;;;;;5048278;28;20029;-78
2021/01/16 03:13:50;;;;;;;44.00;31.90;;;1.40;87.10;;;;;;5048946;28;21595;-79
2021/01/16 03:16:25;;;;;;;48.55;33.22;;;1.40;87.10;;;;;;5049149;28;20064;-79
2021/01/16 03:18:56;;;;;;;44.55;32.05;;;1.40;87.10;;;;;;5051850;28;20083;-78
2021/01/16 03:21:22;;;;;;;46.35;32.85;;;1.40;87.20;;;;;;5045921;28;20041;-78
2021/01/16 03:23:47;;;;;;;44.20;32.35;;;1.40;87.20;;;;;;5049873;28;20035;-78
2021/01/16 03:26:13;;;;;;;47.40;34.20;;;1.40;87.20;;;;;;5049016;28;20064;-78
2021/01/16 03:28:39;;;;;;;47.63;32.78;;;1.50;87.20;;;;;;5050911;28;20036;-79
2021/01/16 03:31:04;;;;;;;44.30;32.45;;;1.40;87.20;;;;;;5046146;28;20049;-78
2021/01/16 03:33:30;;;;;;;46.33;33.28;;;1.40;87.10;;;;;;5044193;28;20048;-78
2021/01/16 03:35:55;;;;;;;45.38;33.10;;;1.50;87.20;;;;;;5050050;28;20033;-78
2021/01/16 03:38:21;;;;;;;49.13;35.03;;;1.50;87.30;;;;;;5061636;28;20056;-78
2021/01/16 03:40:47;;;;;;;48.60;33.58;;;1.40;87.20;;;;;;5072824;28;20540;-78
2021/01/16 03:43:13;;;;;;;41.15;33.30;;;1.40;87.20;;;;;;5070713;28;20037;-78
2021/01/16 03:45:39;;;;;;;46.70;34.55;;;1.40;87.30;;;;;;5077267;28;20037;-79
2021/01/16 03:48:06;;;;;;;46.17;34.00;;;1.40;87.40;;;;;;5066807;28;20086;-77
2021/01/16 03:50:32;;;;;;;48.38;35.03;;;1.40;87.30;;;;;;5059465;28;20116;-79
2021/01/16 03:52:57;;;;;;;48.55;34.55;;;1.50;87.20;;;;;;5049302;28;20515;-81
2021/01/16 03:55:23;;;;;;;50.80;35.15;;;1.40;87.10;;;;;;5048728;28;20044;-78
2021/01/16 03:57:49;;;;;;;47.15;34.38;;;1.40;87.10;;;;;;5049069;28;20036;-78
2021/01/16 04:00:15;;;;;;;48.63;34.75;;;1.40;87.10;;;;;;5047198;28;20045;-79
2021/01/16 04:02:40;;;;;;;47.17;33.58;;;1.40;87.00;;;;;;5047430;28;20035;-78
2021/01/16 04:05:07;;;;;;;52.47;35.72;;;1.40;86.90;;;;;;5046352;28;20045;-79
2021/01/16 04:07:33;;;;;;;46.78;32.92;;;1.40;87.00;;;;;;5050208;28;20044;-78
2021/01/16 04:10:00;;;;;;;45.33;33.40;;;1.40;87.00;;;;;;5054500;28;20048;-77
2021/01/16 04:12:28;;;;;;;44.38;32.83;;;1.40;87.00;;;;;;5053435;28;20056;-78
2021/01/16 04:14:54;;;;;;;45.38;32.25;;;1.40;87.10;;;;;;5048351;28;20427;-78
2021/01/16 04:17:19;;;;;;;47.28;34.30;;;1.40;87.00;;;;;;5047736;28;20029;-78
2021/01/16 04:19:45;;;;;;;50.50;33.40;;;1.40;86.90;;;;;;5050281;28;20035;-78
2021/01/16 04:22:11;;;;;;;44.80;31.67;;;1.40;86.90;;;;;;5047459;28;20102;-78
2021/01/16 04:24:36;;;;;;;45.17;31.67;;;1.40;86.90;;;;;;5053272;28;20040;-78
2021/01/16 04:27:02;;;;;;;47.50;32.72;;;1.40;86.90;;;;;;5046217;28;20120;-78
2021/01/16 04:29:28;;;;;;;48.53;34.60;;;1.40;86.80;;;;;;5048376;28;20036;-79
2021/01/16 04:31:53;;;;;;;49.00;33.42;;;1.40;86.70;;;;;;5050139;28;20100;-78
2021/01/16 04:34:19;;;;;;;46.75;32.58;;;1.40;86.80;;;;;;5046724;28;20048;-78
2021/01/16 04:36:45;;;;;;;45.72;30.90;;;1.30;86.70;;;;;;5047647;28;20449;-79
2021/01/16 04:39:10;;;;;;;43.80;31.33;;;1.40;86.70;;;;;;5046831;28;20087;-77
2021/01/16 04:41:37;;;;;;;44.08;31.85;;;1.40;86.80;;;;;;5047737;28;20353;-78
2021/01/16 04:44:04;;;;;;;44.45;31.92;;;1.40;86.70;;;;;;5047041;28;20028;-78
2021/01/16 04:46:30;;;;;;;45.70;31.92;;;1.40;86.50;;;;;;5046684;28;20061;-79
2021/01/16 04:49:01;;;;;;;42.70;30.90;;;1.40;86.60;;;;;;5045753;28;21656;-79
2021/01/16 04:51:31;;;;;;;42.08;31.42;;;1.40;86.40;;;;;;5049242;28;20041;-78
2021/01/16 04:54:00;;;;;;;43.38;31.25;;;1.40;86.40;;;;;;5048548;28;20124;-79
2021/01/16 04:56:34;;;;;;;44.03;30.98;;;1.40;86.30;;;;;;5043279;28;20029;-79
2021/01/16 04:59:00;;;;;;;44.05;30.42;;;1.40;86.40;;;;;;5051042;28;20043;-78
2021/01/16 05:01:29;;;;;;;46.65;32.85;;;1.40;86.40;;;;;;5044956;28;20032;-78
2021/01/16 05:03:56;;;;;;;46.67;30.67;;;1.40;86.20;;;;;;5047053;28;20041;-77
2021/01/16 05:06:25;;;;;;;41.47;31.05;;;1.40;86.20;;;;;;5047201;28;20045;-79
2021/01/16 05:08:54;;;;;;;44.20;30.38;;;1.40;86.10;;;;;;5050457;28;20383;-79
2021/01/16 05:11:22;;;;;;;44.55;29.63;;;1.30;86.10;;;;;;5043157;28;20029;-78
2021/01/16 05:14:01;;;;;;;39.47;28.88;;;1.30;86.00;;;;;;5045312;28;20060;-79
2021/01/16 05:16:43;;;;;;;44.50;29.73;;;1.30;86.00;;;;;;5039920;28;20048;-78
2021/01/16 05:19:15;;;;;;;40.35;29.10;;;1.40;85.90;;;;;;5058734;28;20669;-78
2021/01/16 05:21:41;;;;;;;41.58;29.30;;;1.30;85.90;;;;;;5046422;28;20037;-78
2021/01/16 05:24:07;;;;;;;43.05;29.80;;;1.30;85.70;;;;;;5046595;28;20041;-79
2021/01/16 05:26:43;;;;;;;43.03;28.95;;;1.30;85.70;;;;;;5047542;28;20052;-78
2021/01/16 05:29:10;;;;;;;44.28;28.55;;;1.30;85.90;;;;;;5046337;28;20598;-78
2021/01/16 05:31:36;;;;;;;39.47;28.27;;;1.30;85.70;;;;;;5048044;28;20497;-78
2021/01/16 05:34:03;;;;;;;39.97;27.73;;;1.30;85.60;;;;;;5056647;28;20037;-78
2021/01/16 05:36:30;;;;;;;39.33;27.15;;;1.30;85.50;;;;;;5049139;28;20029;-79
2021/01/16 05:38:55;;;;;;;37.20;26.33;;;1.30;85.10;;;;;;5036802;28;20071;-78
2021/01/16 05:41:24;;;;;;;35.70;25.27;;;1.30;84.80;;;;;;5046870;28;20652;-78
2021/01/16 05:43:50;;;;;;;37.60;24.25;;;1.30;84.70;;;;;;5041961;28;20663;-79
2021/01/16 05:46:16;;;;;;;37.03;25.17;;;1.30;84.50;;;;;;5049143;28;20051;-79
2021/01/16 05:48:42;;;;;;;36.95;24.75;;;1.30;84.30;;;;;;5045716;28;20158;-78
2021/01/16 05:51:08;;;;;;;43.05;25.05;;;1.30;84.30;;;;;;5053123;28;20361;-78
2021/01/16 05:53:35;;;;;;;33.60;23.27;;;1.30;84.40;;;;;;5052641;28;20378;-79
2021/01/16 05:56:02;;;;;;;34.20;22.98;;;1.30;84.10;;;;;;5046032;28;20095;-78
2021/01/16 05:58:32;;;;;;;31.52;21.65;;;1.30;83.80;;;;;;5046664;28;20045;-78
2021/01/16 06:01:04;;;;;;;32.40;22.60;;;1.30;83.60;;;;;;5046015;28;20057;-78
2021/01/16 06:03:33;;;;;;;27.58;19.55;;;1.30;83.20;;;;;;5049749;28;20035;-79
2021/01/16 06:05:59;;;;;;;26.30;18.42;;;1.40;82.20;;;;;;5043770;28;20048;-78
2021/01/16 06:08:24;;;;;;;28.17;17.80;;;1.40;82.20;;;;;;5048307;28;20025;-79
2021/01/16 06:10:57;;;;;;;25.95;17.08;;;1.40;81.40;;;;;;5045203;28;20068;-78
2021/01/16 06:13:30;;;;;;;24.67;15.68;;;1.40;80.60;;;;;;5043202;28;20037;-78
2021/01/16 06:16:01;;;;;;;21.77;15.43;;;1.30;80.60;;;;;;5048706;28;20049;-78
2021/01/16 06:18:42;;;;;;;22.08;15.07;;;1.30;80.40;;;;;;5034331;28;20041;-79
2021/01/16 06:21:09;;;;;;;25.48;15.57;;;1.30;80.60;;;;;;5044697;28;20440;-78
2021/01/16 06:23:39;;;;;;;24.88;16.00;;;1.30;79.90;;;;;;5045094;28;20676;-79
2021/01/16 06:26:08;;;;;;;25.85;15.73;;;1.30;79.60;;;;;;5045920;28;20081;-80
2021/01/16 06:28:59;;;;;;;25.65;16.88;;;1.30;79.60;;;;;;5053031;28;20115;-79
2021/01/16 06:31:30;;;;;;;31.33;18.42;;;1.20;79.90;;;;;;5046020;28;20078;-79
2021/01/16 06:34:09;;;;;;;26.88;17.02;;;1.20;79.90;;;;;;5059494;28;20037;-79
2021/01/16 06:36:37;;;;;;;28.30;17.40;;;1.20;80.50;;;;;;5049109;28;20124;-79
2021/01/16 06:39:07;;;;;;;27.17;17.98;;;1.20;80.80;;;;;;5046801;28;20037;-80
2021/01/16 06:41:44;;;;;;;29.20;18.80;;;1.10;80.70;;;;;;5046840;28;20106;-80
2021/01/16 06:44:14;;;;;;;29.85;19.52;;;1.10;80.90;;;;;;5047501;28;20044;-79
2021/01/16 06:46:48;;;;;;;31.77;19.23;;;1.10;81.00;;;;;;5044740;28;20055;-79
2021/01/16 06:49:28;;;;;;;34.70;21.38;;;1.10;81.00;;;;;;5050423;28;20103;-79
2021/01/16 06:52:01;;;;;;;30.52;20.70;;;1.10;81.30;;;;;;5048490;28;20064;-80
2021/01/16 06:54:38;;;;;;;30.75;19.98;;;1.10;81.50;;;;;;5048268;28;20128;-79
2021/01/16 06:57:08;;;;;;;29.88;19.38;;;1.10;81.50;;;;;;5047891;28;20048;-79
2021/01/16 06:59:35;;;;;;;30.83;20.27;;;1.10;81.40;;;;;;5047945;28;20048;-80
2021/01/16 07:02:16;;;;;;;32.30;20.17;;;1.00;81.30;;;;;;5047097;28;20033;-79
2021/01/16 07:04:53;;;;;;;31.08;20.55;;;1.00;81.50;;;;;;5046000;28;20082;-79
2021/01/16 07:07:36;;;;;;;29.70;19.00;;;1.00;81.40;;;;;;5048366;28;20036;-79
2021/01/16 07:10:08;;;;;;;32.97;19.25;;;0.90;81.30;;;;;;5047270;28;20033;-79
2021/01/16 07:12:35;;;;;;;32.85;19.92;;;1.00;81.10;;;;;;5048091;28;20041;-79
2021/01/16 07:15:04;;;;;;;30.17;19.73;;;0.90;81.00;;;;;;5049450;28;20060;-79
2021/01/16 07:17:31;;;;;;;32.35;20.45;;;0.90;81.50;;;;;;5046742;28;20120;-79
2021/01/16 07:19:58;;;;;;;30.77;20.63;;;0.90;81.50;;;;;;5047076;28;20086;-80
2021/01/16 07:22:31;;;;;;;30.75;19.67;;;0.90;81.60;;;;;;5042420;28;20095;-79
2021/01/16 07:24:59;;;;;;;31.80;20.55;;;0.90;81.40;;;;;;5044871;28;20090;-79
2021/01/16 07:27:26;;;;;;;30.80;20.08;;;0.90;81.60;;;;;;5047644;28;20515;-79
2021/01/16 07:29:59;;;;;;;30.75;20.13;;;0.80;81.50;;;;;;5051896;28;20029;-79
2021/01/16 07:32:39;;;;;;;33.08;21.40;;;0.90;81.30;;;;;;5046211;28;20436;-79
2021/01/16 07:35:07;;;;;;;29.60;19.48;;;0.80;81.30;;;;;;5051491;28;20049;-79
2021/01/16 07:37:33;;;;;;;30.98;19.33;;;0.90;81.30;;;;;;5047022;28;20040;-80
2021/01/16 07:39:59;;;;;;;30.70;20.02;;;0.80;81.30;;;;;;5046468;28;20427;-79
2021/01/16 07:42:26;;;;;;;30.38;18.75;;;0.90;81.30;;;;;;5044915;28;20041;-79
2021/01/16 07:45:09;;;;;;;28.67;19.38;;;0.80;81.20;;;;;;5043051;28;20110;-80
2021/01/16 07:47:40;;;;;;;27.17;17.90;;;0.90;81.00;;;;;;5042537;28;20122;-80
2021/01/16 07:50:30;;;;;;;29.17;19.50;;;0.90;80.60;;;;;;5050128;28;20081;-80
2021/01/16 07:52:58;;;;;;;29.67;18.38;;;0.90;80.60;;;;;;5044673;28;20041;-79
2021/01/16 07:55:44;;;;;;;30.65;19.20;;;0.90;80.60;;;;;;5048381;28;20187;-80
2021/01/16 07:58:32;;;;;;;31.90;19.60;;;0.90;80.70;;;;;;5044312;28;20068;-80
2021/01/16 08:01:02;;;;;;;30.95;18.60;;;0.90;80.60;;;;;;5052287;28;20040;-81
2021/01/16 08:04:13;;;;;;;32.40;19.65;;;0.90;80.70;;;;;;5070742;28;20040;-83
2021/01/16 08:07:03;;;;;;;31.90;19.88;;;0.90;80.60;;;;;;5069240;28;20147;-79
2021/01/16 08:09:41;;;;;;;32.92;20.45;;;0.90;81.00;;;;;;5080691;28;20093;-83
2021/01/16 08:12:11;;;;;;;31.42;20.05;;;1.00;81.10;;;;;;5047899;28;20060;-82
2021/01/16 08:14:38;;;;;;;30.83;20.10;;;0.90;80.80;;;;;;5046302;28;20048;-80
2021/01/16 08:17:05;;;;;;;32.33;20.98;;;0.90;81.10;;;;;;5042434;28;20037;-84
2021/01/16 08:20:01;;;;;;;32.08;20.13;;;0.90;80.90;;;;;;5043069;28;20074;-82
2021/01/16 08:22:43;;;;;;;34.33;20.70;;;0.90;81.10;;;;;;5046118;28;20051;-82
2021/01/16 08:25:11;;;;;;;32.78;20.17;;;0.90;81.00;;;;;;5042404;28;20052;-82
2021/01/16 08:27:44;;;;;;;34.75;20.88;;;1.00;81.00;;;;;;5072541;28;20021;-82
2021/01/16 08:30:15;;;;;;;31.48;20.85;;;1.00;80.90;;;;;;5043488;28;20036;-80
2021/01/16 08:33:16;;;;;;;32.38;20.33;;;1.00;80.70;;;;;;5054290;28;20037;-81
2021/01/16 08:35:48;;;;;;;32.03;20.02;;;1.00;80.70;;;;;;5058554;28;20044;-82
2021/01/16 08:38:16;;;;;;;31.20;19.95;;;1.10;80.60;;;;;;5044166;28;20084;-81
2021/01/16 08:40:53;;;;;;;33.53;21.20;;;1.10;80.50;;;;;;5045083;28;20083;-83
2021/01/16 08:43:38;;;;;;;34.10;21.23;;;1.10;80.70;;;;;;5044148;28;20033;-80
2021/01/16 08:46:23;;;;;;;30.60;19.95;;;1.10;81.00;;;;;;5051234;28;20041;-80
2021/01/16 08:48:57;;;;;;;;;;;1.10;80.40;;;;;;5049828;28;20034;-82
2021/01/16 08:51:30;;;;;;;30.77;19.27;;;1.10;80.20;;;;;;5045486;28;19916;-80
2021/01/16 08:54:16;;;;;;;31.50;20.63;;;1.10;80.10;;;;;;5045340;28;21631;-79
2021/01/16 08:56:44;;;;;;;36.05;20.65;;;1.10;80.20;;;;;;5047892;28;20049;-79
2021/01/16 08:59:32;;;;;;;32.92;21.25;;;1.10;80.00;;;;;;5044450;28;20036;-81
2021/01/16 09:02:11;;;;;;;32.80;20.23;;;1.20;80.00;;;;;;5047397;28;20060;-81
2021/01/16 09:04:41;;;;;;;33.10;21.70;;;1.20;80.00;;;;;;5043365;28;20045;-81
2021/01/16 09:07:13;;;;;;;33.72;21.85;;;1.20;80.00;;;;;;5047950;28;20048;-81
2021/01/16 09:09:39;;;;;;;32.58;20.70;;;1.20;80.30;;;;;;5045507;28;20060;-81
2021/01/16 09:12:10;;;;;;;35.28;22.67;;;1.20;80.40;;;;;;5045425;28;20032;-81
2021/01/16 09:14:38;;;;;;;35.70;23.27;;;1.20;80.40;;;;;;5058967;28;20025;-81
2021/01/16 09:17:20;;;;;;;34.60;22.30;;;1.20;80.50;;;;;;5043468;28;20475;-81
2021/01/16 09:19:53;;;;;;;36.63;23.90;;;1.20;80.40;;;;;;5048275;28;20040;-81
2021/01/16 09:22:23;;;;;;;35.83;23.50;;;1.20;80.50;;;;;;5044134;28;20112;-84
2021/01/16 09:24:50;;;;;;;38.55;24.38;;;1.20;80.50;;;;;;5047365;28;20503;-72
2021/01/16 09:27:27;;;;;;;44.80;29.70;;;1.20;80.70;;;;;;5047963;28;20051;-71
2021/01/16 09:29:54;;;;;;;40.70;26.00;;;1.30;80.90;;;;;;5047220;28;20424;-72
2021/01/16 09:32:38;;;;;;;36.53;24.95;;;1.30;81.10;;;;;;5044073;28;20033;-73
2021/01/16 09:35:06;;;;;;;40.53;27.38;;;1.20;80.90;;;;;;5049076;28;20037;-71
2021/01/16 09:37:35;;;;;;;42.33;26.52;;;1.20;81.10;;;;;;5049522;28;20037;-71
2021/01/16 09:40:13;;;;;;;40.22;24.60;;;1.30;81.20;;;;;;5046067;28;20060;-71
2021/01/16 09:42:47;;;;;;;43.22;26.83;;;1.30;81.20;;;;;;5047444;28;20116;-73
2021/01/16 09:45:13;;;;;;;40.72;26.52;;;1.30;81.20;;;;;;5026159;28;20507;-75
2021/01/16 09:47:41;;;;;;;43.00;28.42;;;1.40;81.10;;;;;;5026067;28;20029;-72
2021/01/16 09:50:09;;;;;;;40.78;27.52;;;1.30;81.00;;;;;;5024915;28;20025;-72
2021/01/16 09:52:34;;;;;;;45.25;28.80;;;1.40;81.20;;;;;;5047658;28;20058;-73
2021/01/16 09:55:03;;;;;;;50.13;31.70;;;1.40;81.60;;;;;;5038934;28;20064;-72
2021/01/16 09:57:37;;;;;;;45.63;28.27;;;1.40;81.00;;;;;;5040358;28;20045;-75
2021/01/16 10:00:30;;;;;;;44.08;28.42;;;1.40;81.40;;;;;;5030958;28;20029;-72
2021/01/16 10:03:16;;;;;;;41.17;25.95;;;1.40;81.30;;;;;;5045298;28;20442;-73
2021/01/16 10:05:42;;;;;;;40.97;26.08;;;1.40;81.30;;;;;;5049268;28;20063;-70
2021/01/16 10:08:09;;;;;;;41.67;27.15;;;1.40;81.00;;;;;;5043011;28;20032;-71
2021/01/16 10:10:45;;;;;;;43.28;27.65;;;1.30;81.10;;;;;;5045674;28;20043;-72
2021/01/16 10:13:12;;;;;;;45.67;28.58;;;1.40;81.50;;;;;;5044996;28;20041;-72
2021/01/16 10:15:47;;;;;;;43.50;27.42;;;1.30;81.20;;;;;;5047592;28;20447;-72
2021/01/16 10:18:18;;;;;;;44.95;29.13;;;1.30;81.30;;;;;;5034701;28;20041;-73
2021/01/16 10:20:43;;;;;;;43.30;27.67;;;1.30;81.60;;;;;;5036513;28;20068;-74
2021/01/16 10:23:09;;;;;;;46.15;28.30;;;1.30;81.40;;;;;;5037240;28;20440;-75
2021/01/16 10:25:42;;;;;;;44.08;29.48;;;1.30;81.50;;;;;;5043912;28;20041;-75
2021/01/16 10:28:12;;;;;;;43.10;29.00;;;1.40;81.60;;;;;;5048738;28;20502;-73
2021/01/16 10:30:57;;;;;;;44.67;29.50;;;1.30;81.50;;;;;;5041046;28;20029;-74
2021/01/16 10:33:23;;;;;;;;;;;1.30;81.50;;;;;;5044886;28;20024;-75
2021/01/16 10:36:05;;;;;;;42.15;26.40;;;1.30;81.70;;;;;;5045105;28;19913;-74
2021/01/16 10:38:44;;;;;;;44.15;28.65;;;1.30;81.40;;;;;;5041434;28;20041;-72
2021/01/16 10:41:12;;;;;;;49.08;29.60;;;1.40;81.50;;;;;;5039465;28;20037;-72
2021/01/16 10:43:38;;;;;;;48.97;31.02;;;1.40;81.60;;;;;;5045421;28;20059;-73
2021/01/16 10:46:46;;;;;;;46.58;30.98;;;1.30;81.60;;;;;;5044031;28;20041;-72
2021/01/16 10:49:14;;;;;;;44.70;28.85;;;1.30;81.80;;;;;;5031451;28;20035;-73
2021/01/16 10:51:56;;;;;;;48.63;31.10;;;1.20;82.00;;;;;;5044760;28;20041;-72
2021/01/16 10:54:22;;;;;;;49.58;31.23;;;1.30;82.00;;;;;;5043411;28;20045;-73
2021/01/16 10:57:08;;;;;;;50.40;31.55;;;1.20;82.00;;;;;;5046850;28;20153;-75
2021/01/16 10:59:38;;;;;;;47.63;30.20;;;1.20;82.00;;;;;;5038525;28;20518;-76
2021/01/16 11:02:15;;;;;;;48.30;30.48;;;1.30;82.10;;;;;;5040944;28;20078;-71
2021/01/16 11:04:42;;;;;;;48.38;30.20;;;1.30;82.00;;;;;;5039472;28;20029;-74
2021/01/16 11:07:31;;;;;;;48.90;31.33;;;1.30;81.70;;;;;;5041622;28;20029;-72
2021/01/16 11:10:03;;;;;;;47.25;29.27;;;1.20;81.80;;;;;;5042283;28;20035;-74
2021/01/16 11:12:29;;;;;;;53.22;33.20;;;1.20;81.80;;;;;;5045539;28;20033;-74
2021/01/16 11:14:55;;;;;;;49.80;30.60;;;1.20;82.00;;;;;;5042497;28;20047;-72
2021/01/16 11:17:47;;;;;;;49.80;30.27;;;1.10;81.80;;;;;;5047948;28;20041;-69
2021/01/16 11:20:34;;;;;;;47.40;29.08;;;1.10;82.50;;;;;;5037125;28;20372;-72
2021/01/16 11:23:18;;;;;;;50.33;32.13;;;1.10;83.20;;;;;;5043081;28;20029;-74
2021/01/16 11:25:45;;;;;;;50.90;32.60;;;1.10;83.90;;;;;;5040335;28;20041;-74
2021/01/16 11:28:12;;;;;;;56.90;37.17;;;1.10;84.70;;;;;;5047213;28;20029;-75
2021/01/16 11:30:48;;;;;;;67.60;41.45;;;1.00;85.20;;;;;;5042219;28;20124;-73
2021/01/16 11:33:16;;;;;;;67.55;42.70;;;1.00;85.70;;;;;;5036340;28;20120;-74
2021/01/16 11:35:43;;;;;;;57.63;37.50;;;0.90;86.00;;;;;;5036386;28;20033;-73
2021/01/16 11:38:38;;;;;;;58.83;37.33;;;0.90;86.10;;;;;;5041371;28;20044;-71
2021/01/16 11:41:05;;;;;;;57.00;36.47;;;0.90;86.40;;;;;;5040182;28;20479;-71
2021/01/16 11:43:31;;;;;;;58.00;35.60;;;0.90;86.50;;;;;;5039065;28;20052;-71
2021/01/16 11:46:15;;;;;;;57.67;36.28;;;0.90;86.70;;;;;;5044466;28;20045;-73
2021/01/16 11:48:41;;;;;;;56.00;34.40;;;0.80;86.70;;;;;;5036192;28;20048;-75
2021/01/16 11:51:15;;;;;;;58.85;38.88;;;0.90;87.00;;;;;;5045481;28;20037;-74
2021/01/16 11:53:51;;;;;;;64.60;41.22;;;0.90;86.90;;;;;;5041370;28;20119;-73
2021/01/16 11:56:20;;;;;;;60.33;38.42;;;0.90;87.00;;;;;;5049074;28;20080;-71
2021/01/16 11:58:49;;;;;;;63.90;38.25;;;0.80;87.30;;;;;;5018366;28;716763;-71
2021/01/16 12:01:16;;;;;;;62.70;39.28;;;0.90;87.30;;;;;;5046211;28;20053;-73
2021/01/16 12:03:45;;;;;;;59.85;38.67;;;0.80;87.20;;;;;;5046479;28;20031;-72
2021/01/16 12:06:12;;;;;;;62.15;39.42;;;0.80;87.90;;;;;;5045785;28;20083;-73
2021/01/16 12:08:41;;;;;;;64.97;40.42;;;0.70;88.10;;;;;;5047871;28;20065;-71
2021/01/16 12:11:10;;;;;;;61.95;38.92;;;0.70;88.20;;;;;;5046170;28;20480;-72
2021/01/16 12:13:35;;;;;;;65.88;40.45;;;0.80;88.50;;;;;;5046693;28;20033;-71
2021/01/16 12:16:01;;;;;;;61.35;38.60;;;0.80;88.40;;;;;;5046398;28;20043;-71
2021/01/16 12:18:27;;;;;;;60.92;40.03;;;0.80;88.60;;;;;;5046347;28;20032;-72
2021/01/16 12:20:53;;;;;;;60.92;37.88;;;0.70;89.00;;;;;;5045819;28;20060;-72
2021/01/16 12:23:24;;;;;;;66.10;40.20;;;0.60;89.20;;;;;;5049018;28;20045;-71
2021/01/16 12:25:51;;;;;;;63.53;39.45;;;0.60;89.20;;;;;;5046354;28;20115;-72
2021/01/16 12:28:25;;;;;;;58.65;38.75;;;0.50;89.40;;;;;;5051304;28;20045;-72
2021/01/16 12:30:51;;;;;;;58.63;37.43;;;0.50;89.50;;;;;;5045080;28;20075;-75
2021/01/16 12:33:23;;;;;;;60.08;37.28;;;0.60;89.40;;;;;;5050350;28;20065;-72
2021/01/16 12:35:49;;;;;;;63.15;37.85;;;0.50;89.20;;;;;;5043294;28;20043;-72
2021/01/16 12:38:15;;;;;;;64.00;39.42;;;0.50;89.30;;;;;;5046686;28;20391;-72
2021/01/16 12:40:41;;;;;;;62.38;39.47;;;0.40;89.60;;;;;;5047124;28;20040;-71
2021/01/16 12:43:13;;;;;;;58.92;37.75;;;0.50;89.70;;;;;;5043230;28;20484;-72
2021/01/16 12:45:39;;;;;;;58.33;37.58;;;0.40;89.40;;;;;;5047144;28;20029;-71
2021/01/16 12:48:05;;;;;;;60.63;37.30;;;0.40;89.80;;;;;;5052058;28;20071;-71
2021/01/16 12:50:31;;;;;;;61.45;40.13;;;0.40;89.80;;;;;;5049169;28;20032;-74
2021/01/16 12:52:57;;;;;;;56.72;35.55;;;0.40;89.70;;;;;;5045375;28;20033;-74
2021/01/16 12:55:25;;;;;;;59.70;37.70;;;0.40;89.90;;;;;;5046104;28;20491;-70